sensor_id;sensor_type;location;lat;lon;timestamp;P1;durP1;ratioP1;P2;durP2;ratioP2
11681;SDS011;5897;42.640;23.310;2023-07-29T00:01:44;2.50;;;2.17;;
11681;SDS011;5897;42.640;23.310;2023-07-29T00:04:11;3.13;;;2.28;;
11681;SDS011;5897;42.640;23.310;2023-07-29T00:06:38;2.60;;;2.40;;
11681;SDS011;5897;42.640;23.310;2023-07-29T00:09:06;2.78;;;2.25;;
11681;SDS011;5897;42.640;23.310;2023-07-29T00:11:33;2.63;;;2.35;;
11681;SDS011;5897;42.640;23.310;2023-07-29T00:14:00;2.42;;;2.22;;
11681;SDS011;5897;42.640;23.310;2023-07-29T00:16:26;2.55;;;2.35;;
11681;SDS011;5897;42.640;23.310;2023-07-29T00:18:53;2.80;;;2.17;;
11681;SDS011;5897;42.640;23.310;2023-07-29T00:21:20;2.45;;;2.25;;
11681;SDS011;5897;42.640;23.310;2023-07-29T00:23:47;2.95;;;2.30;;
11681;SDS011;5897;42.640;23.310;2023-07-29T00:26:15;3.42;;;2.60;;
11681;SDS011;5897;42.640;23.310;2023-07-29T00:28:42;2.58;;;2.38;;
11681;SDS011;5897;42.640;23.310;2023-07-29T00:31:08;2.92;;;2.30;;
11681;SDS011;5897;42.640;23.310;2023-07-29T00:33:35;4.32;;;2.67;;
11681;SDS011;5897;42.640;23.310;2023-07-29T00:36:02;3.58;;;2.30;;
11681;SDS011;5897;42.640;23.310;2023-07-29T00:38:29;3.95;;;2.38;;
11681;SDS011;5897;42.640;23.310;2023-07-29T00:40:56;2.55;;;2.22;;
11681;SDS011;5897;42.640;23.310;2023-07-29T00:43:25;2.92;;;2.35;;
11681;SDS011;5897;42.640;23.310;2023-07-29T00:45:52;3.42;;;2.30;;
11681;SDS011;5897;42.640;23.310;2023-07-29T00:48:19;3.20;;;2.40;;
11681;SDS011;5897;42.640;23.310;2023-07-29T00:50:46;2.60;;;2.40;;
11681;SDS011;5897;42.640;23.310;2023-07-29T00:53:13;2.88;;;2.47;;
11681;SDS011;5897;42.640;23.310;2023-07-29T00:55:40;2.97;;;2.38;;
11681;SDS011;5897;42.640;23.310;2023-07-29T00:58:07;4.47;;;2.42;;
11681;SDS011;5897;42.640;23.310;2023-07-29T01:00:35;2.83;;;2.33;;
11681;SDS011;5897;42.640;23.310;2023-07-29T01:03:03;3.88;;;2.33;;
11681;SDS011;5897;42.640;23.310;2023-07-29T01:05:32;2.92;;;2.63;;
11681;SDS011;5897;42.640;23.310;2023-07-29T01:08:12;4.07;;;2.50;;
11681;SDS011;5897;42.640;23.310;2023-07-29T01:10:49;2.90;;;2.60;;
11681;SDS011;5897;42.640;23.310;2023-07-29T01:13:25;3.13;;;2.42;;
11681;SDS011;5897;42.640;23.310;2023-07-29T01:16:01;2.45;;;2.25;;
11681;SDS011;5897;42.640;23.310;2023-07-29T01:18:34;3.05;;;2.40;;
11681;SDS011;5897;42.640;23.310;2023-07-29T01:21:03;4.82;;;2.35;;
11681;SDS011;5897;42.640;23.310;2023-07-29T01:23:34;2.78;;;2.58;;
11681;SDS011;5897;42.640;23.310;2023-07-29T01:26:00;3.03;;;2.70;;
11681;SDS011;5897;42.640;23.310;2023-07-29T01:28:28;3.28;;;2.78;;
11681;SDS011;5897;42.640;23.310;2023-07-29T01:30:57;3.30;;;2.50;;
11681;SDS011;5897;42.640;23.310;2023-07-29T01:33:30;2.67;;;2.47;;
11681;SDS011;5897;42.640;23.310;2023-07-29T01:36:02;4.57;;;2.53;;
11681;SDS011;5897;42.640;23.310;2023-07-29T01:38:36;2.90;;;2.60;;
11681;SDS011;5897;42.640;23.310;2023-07-29T01:41:07;3.10;;;2.60;;
11681;SDS011;5897;42.640;23.310;2023-07-29T01:43:34;3.72;;;2.80;;
11681;SDS011;5897;42.640;23.310;2023-07-29T01:46:07;3.20;;;2.90;;
11681;SDS011;5897;42.640;23.310;2023-07-29T01:48:35;4.25;;;2.78;;
11681;SDS011;5897;42.640;23.310;2023-07-29T01:51:02;3.05;;;2.80;;
11681;SDS011;5897;42.640;23.310;2023-07-29T01:53:29;3.78;;;3.10;;
11681;SDS011;5897;42.640;23.310;2023-07-29T01:55:58;3.22;;;2.80;;
11681;SDS011;5897;42.640;23.310;2023-07-29T01:58:24;3.92;;;2.85;;
11681;SDS011;5897;42.640;23.310;2023-07-29T02:00:51;3.25;;;2.60;;
11681;SDS011;5897;42.640;23.310;2023-07-29T02:03:18;4.40;;;2.83;;
11681;SDS011;5897;42.640;23.310;2023-07-29T02:05:45;3.97;;;2.65;;
11681;SDS011;5897;42.640;23.310;2023-07-29T02:08:11;4.07;;;2.70;;
11681;SDS011;5897;42.640;23.310;2023-07-29T02:10:39;3.88;;;2.78;;
11681;SDS011;5897;42.640;23.310;2023-07-29T02:13:07;3.97;;;2.67;;
11681;SDS011;5897;42.640;23.310;2023-07-29T02:15:34;3.33;;;3.03;;
11681;SDS011;5897;42.640;23.310;2023-07-29T02:18:01;3.83;;;2.80;;
11681;SDS011;5897;42.640;23.310;2023-07-29T02:20:28;2.85;;;2.65;;
11681;SDS011;5897;42.640;23.310;2023-07-29T02:22:55;3.78;;;2.72;;
11681;SDS011;5897;42.640;23.310;2023-07-29T02:25:22;4.57;;;2.70;;
11681;SDS011;5897;42.640;23.310;2023-07-29T02:27:48;3.50;;;3.20;;
11681;SDS011;5897;42.640;23.310;2023-07-29T02:30:16;3.53;;;2.97;;
11681;SDS011;5897;42.640;23.310;2023-07-29T02:32:43;4.43;;;3.20;;
11681;SDS011;5897;42.640;23.310;2023-07-29T02:35:10;3.60;;;2.90;;
11681;SDS011;5897;42.640;23.310;2023-07-29T02:37:38;4.40;;;3.00;;
11681;SDS011;5897;42.640;23.310;2023-07-29T02:40:05;3.17;;;2.90;;
11681;SDS011;5897;42.640;23.310;2023-07-29T02:42:32;5.45;;;3.15;;
11681;SDS011;5897;42.640;23.310;2023-07-29T02:44:59;3.88;;;3.17;;
11681;SDS011;5897;42.640;23.310;2023-07-29T02:47:27;4.47;;;3.05;;
11681;SDS011;5897;42.640;23.310;2023-07-29T02:49:54;3.47;;;3.17;;
11681;SDS011;5897;42.640;23.310;2023-07-29T02:52:21;5.75;;;3.28;;
11681;SDS011;5897;42.640;23.310;2023-07-29T02:54:48;4.88;;;3.20;;
11681;SDS011;5897;42.640;23.310;2023-07-29T02:57:15;5.45;;;2.90;;
11681;SDS011;5897;42.640;23.310;2023-07-29T02:59:42;6.75;;;3.40;;
11681;SDS011;5897;42.640;23.310;2023-07-29T03:02:09;7.50;;;2.92;;
11681;SDS011;5897;42.640;23.310;2023-07-29T03:04:37;3.92;;;3.10;;
11681;SDS011;5897;42.640;23.310;2023-07-29T03:07:04;4.78;;;3.30;;
11681;SDS011;5897;42.640;23.310;2023-07-29T03:09:31;5.78;;;3.17;;
11681;SDS011;5897;42.640;23.310;2023-07-29T03:11:58;4.57;;;3.17;;
11681;SDS011;5897;42.640;23.310;2023-07-29T03:14:24;4.30;;;3.28;;
11681;SDS011;5897;42.640;23.310;2023-07-29T03:16:51;3.92;;;3.30;;
11681;SDS011;5897;42.640;23.310;2023-07-29T03:19:18;6.35;;;3.20;;
11681;SDS011;5897;42.640;23.310;2023-07-29T03:21:46;3.75;;;3.28;;
11681;SDS011;5897;42.640;23.310;2023-07-29T03:24:13;4.25;;;3.15;;
11681;SDS011;5897;42.640;23.310;2023-07-29T03:26:40;5.07;;;3.20;;
11681;SDS011;5897;42.640;23.310;2023-07-29T03:29:06;6.72;;;3.35;;
11681;SDS011;5897;42.640;23.310;2023-07-29T03:31:33;4.60;;;3.60;;
11681;SDS011;5897;42.640;23.310;2023-07-29T03:34:00;5.38;;;3.30;;
11681;SDS011;5897;42.640;23.310;2023-07-29T03:36:27;5.47;;;3.40;;
11681;SDS011;5897;42.640;23.310;2023-07-29T03:38:56;3.30;;;3.00;;
11681;SDS011;5897;42.640;23.310;2023-07-29T03:41:23;4.70;;;3.53;;
11681;SDS011;5897;42.640;23.310;2023-07-29T03:43:50;6.10;;;3.33;;
11681;SDS011;5897;42.640;23.310;2023-07-29T03:46:17;5.82;;;3.40;;
11681;SDS011;5897;42.640;23.310;2023-07-29T03:48:46;5.28;;;3.33;;
11681;SDS011;5897;42.640;23.310;2023-07-29T03:51:13;6.60;;;3.47;;
11681;SDS011;5897;42.640;23.310;2023-07-29T03:53:40;6.60;;;3.17;;
11681;SDS011;5897;42.640;23.310;2023-07-29T03:56:08;5.43;;;3.60;;
11681;SDS011;5897;42.640;23.310;2023-07-29T03:58:34;5.22;;;3.30;;
11681;SDS011;5897;42.640;23.310;2023-07-29T04:01:01;4.82;;;3.90;;
11681;SDS011;5897;42.640;23.310;2023-07-29T04:03:29;7.35;;;4.80;;
11681;SDS011;5897;42.640;23.310;2023-07-29T04:05:56;9.13;;;4.53;;
11681;SDS011;5897;42.640;23.310;2023-07-29T04:08:23;12.23;;;4.32;;
11681;SDS011;5897;42.640;23.310;2023-07-29T04:10:49;9.85;;;4.20;;
11681;SDS011;5897;42.640;23.310;2023-07-29T04:13:17;6.85;;;3.72;;
11681;SDS011;5897;42.640;23.310;2023-07-29T04:15:44;8.38;;;3.88;;
11681;SDS011;5897;42.640;23.310;2023-07-29T04:18:11;6.72;;;3.67;;
11681;SDS011;5897;42.640;23.310;2023-07-29T04:20:38;8.02;;;3.83;;
11681;SDS011;5897;42.640;23.310;2023-07-29T04:23:04;7.70;;;3.75;;
11681;SDS011;5897;42.640;23.310;2023-07-29T04:25:31;7.28;;;3.88;;
11681;SDS011;5897;42.640;23.310;2023-07-29T04:27:58;6.13;;;3.85;;
11681;SDS011;5897;42.640;23.310;2023-07-29T04:30:26;5.28;;;4.07;;
11681;SDS011;5897;42.640;23.310;2023-07-29T04:32:53;5.50;;;3.63;;
11681;SDS011;5897;42.640;23.310;2023-07-29T04:35:19;6.25;;;4.00;;
11681;SDS011;5897;42.640;23.310;2023-07-29T04:37:46;4.25;;;3.53;;
11681;SDS011;5897;42.640;23.310;2023-07-29T04:40:13;6.97;;;4.13;;
11681;SDS011;5897;42.640;23.310;2023-07-29T04:42:40;4.53;;;3.92;;
11681;SDS011;5897;42.640;23.310;2023-07-29T04:45:07;7.00;;;4.25;;
11681;SDS011;5897;42.640;23.310;2023-07-29T04:47:36;5.57;;;3.70;;
11681;SDS011;5897;42.640;23.310;2023-07-29T04:50:03;17.27;;;4.75;;
11681;SDS011;5897;42.640;23.310;2023-07-29T04:52:31;5.43;;;4.25;;
11681;SDS011;5897;42.640;23.310;2023-07-29T04:54:58;6.18;;;4.35;;
11681;SDS011;5897;42.640;23.310;2023-07-29T04:57:24;5.35;;;3.95;;
11681;SDS011;5897;42.640;23.310;2023-07-29T04:59:51;5.88;;;4.07;;
11681;SDS011;5897;42.640;23.310;2023-07-29T05:02:18;8.20;;;4.43;;
11681;SDS011;5897;42.640;23.310;2023-07-29T05:04:47;8.10;;;4.78;;
11681;SDS011;5897;42.640;23.310;2023-07-29T05:07:14;7.78;;;4.70;;
11681;SDS011;5897;42.640;23.310;2023-07-29T05:09:41;7.90;;;4.53;;
11681;SDS011;5897;42.640;23.310;2023-07-29T05:12:08;8.38;;;4.55;;
11681;SDS011;5897;42.640;23.310;2023-07-29T05:14:34;6.50;;;4.82;;
11681;SDS011;5897;42.640;23.310;2023-07-29T05:17:01;8.75;;;4.78;;
11681;SDS011;5897;42.640;23.310;2023-07-29T05:19:28;6.93;;;4.50;;
11681;SDS011;5897;42.640;23.310;2023-07-29T05:21:56;4.90;;;4.40;;
11681;SDS011;5897;42.640;23.310;2023-07-29T05:24:23;6.72;;;4.20;;
11681;SDS011;5897;42.640;23.310;2023-07-29T05:26:50;7.07;;;4.07;;
11681;SDS011;5897;42.640;23.310;2023-07-29T05:29:16;4.88;;;4.30;;
11681;SDS011;5897;42.640;23.310;2023-07-29T05:31:43;8.30;;;4.70;;
11681;SDS011;5897;42.640;23.310;2023-07-29T05:34:10;7.22;;;4.70;;
11681;SDS011;5897;42.640;23.310;2023-07-29T05:36:37;7.35;;;4.57;;
11681;SDS011;5897;42.640;23.310;2023-07-29T05:39:05;4.53;;;4.13;;
11681;SDS011;5897;42.640;23.310;2023-07-29T05:41:32;5.00;;;4.15;;
11681;SDS011;5897;42.640;23.310;2023-07-29T05:43:59;5.55;;;4.20;;
11681;SDS011;5897;42.640;23.310;2023-07-29T05:46:25;5.07;;;4.18;;
11681;SDS011;5897;42.640;23.310;2023-07-29T05:48:52;6.18;;;4.28;;
11681;SDS011;5897;42.640;23.310;2023-07-29T05:51:19;6.78;;;4.10;;
11681;SDS011;5897;42.640;23.310;2023-07-29T05:53:46;6.18;;;3.90;;
11681;SDS011;5897;42.640;23.310;2023-07-29T05:56:14;6.22;;;3.90;;
11681;SDS011;5897;42.640;23.310;2023-07-29T05:58:41;5.85;;;4.00;;
11681;SDS011;5897;42.640;23.310;2023-07-29T06:01:08;6.60;;;4.35;;
11681;SDS011;5897;42.640;23.310;2023-07-29T06:03:34;8.32;;;4.10;;
11681;SDS011;5897;42.640;23.310;2023-07-29T06:06:01;9.95;;;3.83;;
11681;SDS011;5897;42.640;23.310;2023-07-29T06:08:28;5.05;;;3.70;;
11681;SDS011;5897;42.640;23.310;2023-07-29T06:10:55;22.60;;;5.00;;
11681;SDS011;5897;42.640;23.310;2023-07-29T06:13:23;8.45;;;4.20;;
11681;SDS011;5897;42.640;23.310;2023-07-29T06:15:49;4.25;;;3.67;;
11681;SDS011;5897;42.640;23.310;2023-07-29T06:18:16;4.72;;;3.72;;
11681;SDS011;5897;42.640;23.310;2023-07-29T06:20:43;8.02;;;3.60;;
11681;SDS011;5897;42.640;23.310;2023-07-29T06:23:10;7.25;;;3.40;;
11681;SDS011;5897;42.640;23.310;2023-07-29T06:25:36;5.55;;;3.72;;
11681;SDS011;5897;42.640;23.310;2023-07-29T06:28:03;7.80;;;3.85;;
11681;SDS011;5897;42.640;23.310;2023-07-29T06:30:31;4.18;;;3.78;;
11681;SDS011;5897;42.640;23.310;2023-07-29T06:32:58;6.65;;;3.60;;
11681;SDS011;5897;42.640;23.310;2023-07-29T06:35:25;5.82;;;3.53;;
11681;SDS011;5897;42.640;23.310;2023-07-29T06:37:51;5.10;;;3.50;;
11681;SDS011;5897;42.640;23.310;2023-07-29T06:40:18;6.30;;;3.30;;
11681;SDS011;5897;42.640;23.310;2023-07-29T06:42:45;5.32;;;3.20;;
11681;SDS011;5897;42.640;23.310;2023-07-29T06:45:12;7.53;;;3.55;;
11681;SDS011;5897;42.640;23.310;2023-07-29T06:47:42;6.43;;;3.17;;
11681;SDS011;5897;42.640;23.310;2023-07-29T06:50:08;15.18;;;3.65;;
11681;SDS011;5897;42.640;23.310;2023-07-29T06:52:35;5.78;;;2.83;;
11681;SDS011;5897;42.640;23.310;2023-07-29T06:55:03;5.95;;;2.80;;
11681;SDS011;5897;42.640;23.310;2023-07-29T06:57:30;4.47;;;2.97;;
11681;SDS011;5897;42.640;23.310;2023-07-29T06:59:57;3.22;;;2.70;;
11681;SDS011;5897;42.640;23.310;2023-07-29T07:02:24;5.60;;;2.95;;
11681;SDS011;5897;42.640;23.310;2023-07-29T07:04:52;8.90;;;3.08;;
11681;SDS011;5897;42.640;23.310;2023-07-29T07:07:19;3.63;;;3.00;;
11681;SDS011;5897;42.640;23.310;2023-07-29T07:09:45;5.35;;;2.97;;
11681;SDS011;5897;42.640;23.310;2023-07-29T07:12:12;3.10;;;2.67;;
11681;SDS011;5897;42.640;23.310;2023-07-29T07:14:39;4.03;;;2.95;;
11681;SDS011;5897;42.640;23.310;2023-07-29T07:17:06;3.40;;;3.10;;
11681;SDS011;5897;42.640;23.310;2023-07-29T07:19:33;4.13;;;2.80;;
11681;SDS011;5897;42.640;23.310;2023-07-29T07:22:01;5.00;;;2.95;;
11681;SDS011;5897;42.640;23.310;2023-07-29T07:24:28;4.75;;;3.05;;
11681;SDS011;5897;42.640;23.310;2023-07-29T07:26:54;3.45;;;3.05;;
11681;SDS011;5897;42.640;23.310;2023-07-29T07:29:21;5.30;;;2.60;;
11681;SDS011;5897;42.640;23.310;2023-07-29T07:31:49;4.05;;;2.75;;
11681;SDS011;5897;42.640;23.310;2023-07-29T07:34:18;6.05;;;2.70;;
11681;SDS011;5897;42.640;23.310;2023-07-29T07:36:45;5.07;;;2.60;;
11681;SDS011;5897;42.640;23.310;2023-07-29T07:39:14;6.50;;;2.90;;
11681;SDS011;5897;42.640;23.310;2023-07-29T07:41:41;4.30;;;3.15;;
11681;SDS011;5897;42.640;23.310;2023-07-29T07:44:08;4.38;;;2.67;;
11681;SDS011;5897;42.640;23.310;2023-07-29T07:46:36;6.18;;;2.90;;
11681;SDS011;5897;42.640;23.310;2023-07-29T07:49:02;5.70;;;2.90;;
11681;SDS011;5897;42.640;23.310;2023-07-29T07:51:29;3.83;;;2.83;;
11681;SDS011;5897;42.640;23.310;2023-07-29T07:53:56;5.65;;;2.65;;
11681;SDS011;5897;42.640;23.310;2023-07-29T07:56:24;4.63;;;2.70;;
11681;SDS011;5897;42.640;23.310;2023-07-29T07:58:50;5.60;;;2.90;;
11681;SDS011;5897;42.640;23.310;2023-07-29T08:01:17;3.42;;;2.85;;
11681;SDS011;5897;42.640;23.310;2023-07-29T08:03:44;3.35;;;2.60;;
11681;SDS011;5897;42.640;23.310;2023-07-29T08:06:11;4.22;;;2.80;;
11681;SDS011;5897;42.640;23.310;2023-07-29T08:08:38;3.90;;;3.05;;
11681;SDS011;5897;42.640;23.310;2023-07-29T08:11:04;4.35;;;2.45;;
11681;SDS011;5897;42.640;23.310;2023-07-29T08:13:32;5.70;;;3.05;;
11681;SDS011;5897;42.640;23.310;2023-07-29T08:15:59;6.88;;;2.83;;
11681;SDS011;5897;42.640;23.310;2023-07-29T08:18:26;6.75;;;2.90;;
11681;SDS011;5897;42.640;23.310;2023-07-29T08:20:53;5.35;;;2.90;;
11681;SDS011;5897;42.640;23.310;2023-07-29T08:23:20;4.20;;;3.03;;
11681;SDS011;5897;42.640;23.310;2023-07-29T08:25:50;4.82;;;3.00;;
11681;SDS011;5897;42.640;23.310;2023-07-29T08:28:18;4.95;;;2.58;;
11681;SDS011;5897;42.640;23.310;2023-07-29T08:30:47;4.38;;;2.70;;
11681;SDS011;5897;42.640;23.310;2023-07-29T08:33:14;5.05;;;2.70;;
11681;SDS011;5897;42.640;23.310;2023-07-29T08:35:41;3.17;;;2.55;;
11681;SDS011;5897;42.640;23.310;2023-07-29T08:38:07;5.30;;;2.75;;
11681;SDS011;5897;42.640;23.310;2023-07-29T08:40:34;5.22;;;2.60;;
11681;SDS011;5897;42.640;23.310;2023-07-29T08:43:04;5.38;;;2.80;;
11681;SDS011;5897;42.640;23.310;2023-07-29T08:45:32;3.80;;;2.80;;
11681;SDS011;5897;42.640;23.310;2023-07-29T08:48:04;4.63;;;2.95;;
11681;SDS011;5897;42.640;23.310;2023-07-29T08:50:34;5.32;;;2.65;;
11681;SDS011;5897;42.640;23.310;2023-07-29T08:53:02;2.92;;;2.53;;
11681;SDS011;5897;42.640;23.310;2023-07-29T08:55:30;6.05;;;2.95;;
11681;SDS011;5897;42.640;23.310;2023-07-29T08:57:57;5.40;;;3.95;;
11681;SDS011;5897;42.640;23.310;2023-07-29T09:00:25;4.85;;;3.03;;
11681;SDS011;5897;42.640;23.310;2023-07-29T09:02:52;5.22;;;2.90;;
11681;SDS011;5897;42.640;23.310;2023-07-29T09:05:21;2.60;;;2.40;;
11681;SDS011;5897;42.640;23.310;2023-07-29T09:07:48;5.63;;;2.90;;
11681;SDS011;5897;42.640;23.310;2023-07-29T09:10:19;5.03;;;3.10;;
11681;SDS011;5897;42.640;23.310;2023-07-29T09:12:47;6.63;;;2.78;;
11681;SDS011;5897;42.640;23.310;2023-07-29T09:15:25;4.10;;;2.45;;
11681;SDS011;5897;42.640;23.310;2023-07-29T09:17:53;2.08;;;1.88;;
11681;SDS011;5897;42.640;23.310;2023-07-29T09:20:24;3.97;;;1.80;;
11681;SDS011;5897;42.640;23.310;2023-07-29T09:22:52;2.20;;;2.00;;
11681;SDS011;5897;42.640;23.310;2023-07-29T09:25:22;4.25;;;1.70;;
11681;SDS011;5897;42.640;23.310;2023-07-29T09:27:50;4.35;;;1.88;;
11681;SDS011;5897;42.640;23.310;2023-07-29T09:30:17;3.90;;;1.80;;
11681;SDS011;5897;42.640;23.310;2023-07-29T09:32:44;1.70;;;1.45;;
11681;SDS011;5897;42.640;23.310;2023-07-29T09:35:11;2.63;;;1.60;;
11681;SDS011;5897;42.640;23.310;2023-07-29T09:37:40;3.05;;;1.50;;
11681;SDS011;5897;42.640;23.310;2023-07-29T09:40:07;2.15;;;1.30;;
11681;SDS011;5897;42.640;23.310;2023-07-29T09:42:47;3.35;;;1.50;;
11681;SDS011;5897;42.640;23.310;2023-07-29T09:45:18;4.32;;;1.70;;
11681;SDS011;5897;42.640;23.310;2023-07-29T09:47:46;1.73;;;1.60;;
11681;SDS011;5897;42.640;23.310;2023-07-29T09:50:13;1.55;;;1.45;;
11681;SDS011;5897;42.640;23.310;2023-07-29T09:52:41;2.28;;;1.48;;
11681;SDS011;5897;42.640;23.310;2023-07-29T09:55:09;1.83;;;1.30;;
11681;SDS011;5897;42.640;23.310;2023-07-29T09:57:36;2.53;;;1.45;;
11681;SDS011;5897;42.640;23.310;2023-07-29T10:00:04;2.78;;;1.52;;
11681;SDS011;5897;42.640;23.310;2023-07-29T10:02:36;2.22;;;1.30;;
11681;SDS011;5897;42.640;23.310;2023-07-29T10:05:04;2.13;;;0.88;;
11681;SDS011;5897;42.640;23.310;2023-07-29T10:07:33;2.85;;;0.98;;
11681;SDS011;5897;42.640;23.310;2023-07-29T10:10:02;2.88;;;1.15;;
11681;SDS011;5897;42.640;23.310;2023-07-29T10:12:30;4.82;;;1.30;;
11681;SDS011;5897;42.640;23.310;2023-07-29T10:14:58;2.80;;;1.30;;
11681;SDS011;5897;42.640;23.310;2023-07-29T10:17:26;2.88;;;1.10;;
11681;SDS011;5897;42.640;23.310;2023-07-29T10:19:53;3.92;;;1.40;;
11681;SDS011;5897;42.640;23.310;2023-07-29T10:22:22;1.48;;;1.38;;
11681;SDS011;5897;42.640;23.310;2023-07-29T10:24:54;1.35;;;1.20;;
11681;SDS011;5897;42.640;23.310;2023-07-29T10:27:27;3.60;;;1.40;;
11681;SDS011;5897;42.640;23.310;2023-07-29T10:29:55;4.75;;;1.40;;
11681;SDS011;5897;42.640;23.310;2023-07-29T10:32:24;3.53;;;1.42;;
11681;SDS011;5897;42.640;23.310;2023-07-29T10:34:52;1.80;;;1.30;;
11681;SDS011;5897;42.640;23.310;2023-07-29T10:37:19;2.80;;;0.90;;
11681;SDS011;5897;42.640;23.310;2023-07-29T10:39:52;3.13;;;1.20;;
11681;SDS011;5897;42.640;23.310;2023-07-29T10:42:19;2.10;;;1.15;;
11681;SDS011;5897;42.640;23.310;2023-07-29T10:44:48;4.63;;;1.63;;
11681;SDS011;5897;42.640;23.310;2023-07-29T10:47:17;2.70;;;1.15;;
11681;SDS011;5897;42.640;23.310;2023-07-29T10:49:46;1.58;;;1.20;;
11681;SDS011;5897;42.640;23.310;2023-07-29T10:52:13;1.20;;;1.05;;
11681;SDS011;5897;42.640;23.310;2023-07-29T10:54:41;2.05;;;0.98;;
11681;SDS011;5897;42.640;23.310;2023-07-29T10:57:12;1.10;;;1.00;;
11681;SDS011;5897;42.640;23.310;2023-07-29T10:59:40;1.15;;;0.90;;
11681;SDS011;5897;42.640;23.310;2023-07-29T11:02:15;1.40;;;1.08;;
11681;SDS011;5897;42.640;23.310;2023-07-29T11:04:47;2.13;;;1.10;;
11681;SDS011;5897;42.640;23.310;2023-07-29T11:07:20;2.10;;;1.10;;
11681;SDS011;5897;42.640;23.310;2023-07-29T11:09:53;1.65;;;1.20;;
11681;SDS011;5897;42.640;23.310;2023-07-29T11:12:41;2.67;;;1.10;;
11681;SDS011;5897;42.640;23.310;2023-07-29T11:15:14;2.65;;;1.10;;
11681;SDS011;5897;42.640;23.310;2023-07-29T11:17:44;1.70;;;1.30;;
11681;SDS011;5897;42.640;23.310;2023-07-29T11:20:12;1.70;;;1.20;;
11681;SDS011;5897;42.640;23.310;2023-07-29T11:22:40;3.63;;;1.00;;
11681;SDS011;5897;42.640;23.310;2023-07-29T11:25:08;1.58;;;1.10;;
11681;SDS011;5897;42.640;23.310;2023-07-29T11:27:36;4.43;;;1.25;;
11681;SDS011;5897;42.640;23.310;2023-07-29T11:30:04;4.45;;;1.30;;
11681;SDS011;5897;42.640;23.310;2023-07-29T11:32:33;1.70;;;1.20;;
11681;SDS011;5897;42.640;23.310;2023-07-29T11:35:03;1.75;;;1.27;;
11681;SDS011;5897;42.640;23.310;2023-07-29T11:37:32;1.55;;;1.10;;
11681;SDS011;5897;42.640;23.310;2023-07-29T11:39:59;2.88;;;1.20;;
11681;SDS011;5897;42.640;23.310;2023-07-29T11:42:26;2.45;;;1.30;;
11681;SDS011;5897;42.640;23.310;2023-07-29T11:44:55;1.50;;;1.15;;
11681;SDS011;5897;42.640;23.310;2023-07-29T11:47:25;1.98;;;1.00;;
11681;SDS011;5897;42.640;23.310;2023-07-29T11:49:52;2.70;;;1.10;;
11681;SDS011;5897;42.640;23.310;2023-07-29T11:52:21;2.35;;;1.30;;
11681;SDS011;5897;42.640;23.310;2023-07-29T11:54:48;2.38;;;1.15;;
11681;SDS011;5897;42.640;23.310;2023-07-29T11:57:16;2.17;;;1.10;;
11681;SDS011;5897;42.640;23.310;2023-07-29T11:59:43;2.65;;;1.20;;
11681;SDS011;5897;42.640;23.310;2023-07-29T12:02:10;1.33;;;1.17;;
11681;SDS011;5897;42.640;23.310;2023-07-29T12:04:40;3.45;;;1.10;;
11681;SDS011;5897;42.640;23.310;2023-07-29T12:07:07;1.90;;;0.98;;
11681;SDS011;5897;42.640;23.310;2023-07-29T12:09:36;1.33;;;1.00;;
11681;SDS011;5897;42.640;23.310;2023-07-29T12:12:04;1.00;;;0.90;;
11681;SDS011;5897;42.640;23.310;2023-07-29T12:14:31;0.93;;;0.93;;
11681;SDS011;5897;42.640;23.310;2023-07-29T12:16:59;2.97;;;1.10;;
11681;SDS011;5897;42.640;23.310;2023-07-29T12:19:30;1.95;;;1.00;;
11681;SDS011;5897;42.640;23.310;2023-07-29T12:21:59;2.55;;;1.40;;
11681;SDS011;5897;42.640;23.310;2023-07-29T12:24:26;1.30;;;1.20;;
11681;SDS011;5897;42.640;23.310;2023-07-29T12:26:54;1.33;;;0.93;;
11681;SDS011;5897;42.640;23.310;2023-07-29T12:29:21;1.55;;;1.10;;
11681;SDS011;5897;42.640;23.310;2023-07-29T12:31:48;1.02;;;1.00;;
11681;SDS011;5897;42.640;23.310;2023-07-29T12:34:18;3.15;;;1.30;;
11681;SDS011;5897;42.640;23.310;2023-07-29T12:36:45;1.20;;;1.10;;
11681;SDS011;5897;42.640;23.310;2023-07-29T12:39:16;1.25;;;1.10;;
11681;SDS011;5897;42.640;23.310;2023-07-29T12:41:44;2.25;;;1.05;;
11681;SDS011;5897;42.640;23.310;2023-07-29T12:44:12;2.35;;;0.93;;
11681;SDS011;5897;42.640;23.310;2023-07-29T12:46:39;1.23;;;1.13;;
11681;SDS011;5897;42.640;23.310;2023-07-29T12:49:06;2.10;;;1.20;;
11681;SDS011;5897;42.640;23.310;2023-07-29T12:51:33;1.10;;;1.00;;
11681;SDS011;5897;42.640;23.310;2023-07-29T12:54:00;1.40;;;1.02;;
11681;SDS011;5897;42.640;23.310;2023-07-29T12:56:28;1.30;;;1.10;;
11681;SDS011;5897;42.640;23.310;2023-07-29T12:58:55;1.60;;;1.15;;
11681;SDS011;5897;42.640;23.310;2023-07-29T13:01:24;3.47;;;1.27;;
11681;SDS011;5897;42.640;23.310;2023-07-29T13:03:51;1.17;;;1.10;;
11681;SDS011;5897;42.640;23.310;2023-07-29T13:06:18;1.92;;;1.13;;
11681;SDS011;5897;42.640;23.310;2023-07-29T13:08:45;1.73;;;1.35;;
11681;SDS011;5897;42.640;23.310;2023-07-29T13:11:12;1.45;;;1.13;;
11681;SDS011;5897;42.640;23.310;2023-07-29T13:13:40;1.20;;;1.10;;
11681;SDS011;5897;42.640;23.310;2023-07-29T13:16:07;1.58;;;1.10;;
11681;SDS011;5897;42.640;23.310;2023-07-29T13:18:36;1.00;;;1.00;;
11681;SDS011;5897;42.640;23.310;2023-07-29T13:21:02;3.63;;;1.17;;
11681;SDS011;5897;42.640;23.310;2023-07-29T13:23:29;2.10;;;1.40;;
11681;SDS011;5897;42.640;23.310;2023-07-29T13:25:56;1.63;;;1.27;;
11681;SDS011;5897;42.640;23.310;2023-07-29T13:28:23;1.30;;;1.20;;
11681;SDS011;5897;42.640;23.310;2023-07-29T13:30:49;1.10;;;1.00;;
11681;SDS011;5897;42.640;23.310;2023-07-29T13:33:16;2.75;;;1.10;;
11681;SDS011;5897;42.640;23.310;2023-07-29T13:35:44;2.45;;;1.15;;
11681;SDS011;5897;42.640;23.310;2023-07-29T13:38:11;3.05;;;1.17;;
11681;SDS011;5897;42.640;23.310;2023-07-29T13:40:39;2.97;;;1.40;;
11681;SDS011;5897;42.640;23.310;2023-07-29T13:43:05;2.33;;;1.15;;
11681;SDS011;5897;42.640;23.310;2023-07-29T13:45:33;2.00;;;1.23;;
11681;SDS011;5897;42.640;23.310;2023-07-29T13:48:00;3.88;;;1.40;;
11681;SDS011;5897;42.640;23.310;2023-07-29T13:50:27;2.35;;;1.10;;
11681;SDS011;5897;42.640;23.310;2023-07-29T13:52:55;2.00;;;1.40;;
11681;SDS011;5897;42.640;23.310;2023-07-29T13:55:22;2.45;;;1.50;;
11681;SDS011;5897;42.640;23.310;2023-07-29T13:57:49;3.97;;;1.38;;
11681;SDS011;5897;42.640;23.310;2023-07-29T14:00:16;3.30;;;1.30;;
11681;SDS011;5897;42.640;23.310;2023-07-29T14:02:42;1.42;;;1.30;;
11681;SDS011;5897;42.640;23.310;2023-07-29T14:05:09;4.72;;;1.50;;
11681;SDS011;5897;42.640;23.310;2023-07-29T14:07:36;3.22;;;1.40;;
11681;SDS011;5897;42.640;23.310;2023-07-29T14:10:05;3.28;;;1.67;;
11681;SDS011;5897;42.640;23.310;2023-07-29T14:12:33;4.85;;;1.60;;
11681;SDS011;5897;42.640;23.310;2023-07-29T14:15:00;2.08;;;1.88;;
11681;SDS011;5897;42.640;23.310;2023-07-29T14:17:27;2.13;;;1.85;;
11681;SDS011;5897;42.640;23.310;2023-07-29T14:19:54;3.08;;;1.88;;
11681;SDS011;5897;42.640;23.310;2023-07-29T14:22:20;3.25;;;1.85;;
11681;SDS011;5897;42.640;23.310;2023-07-29T14:24:47;2.05;;;1.65;;
11681;SDS011;5897;42.640;23.310;2023-07-29T14:27:15;2.17;;;1.55;;
11681;SDS011;5897;42.640;23.310;2023-07-29T14:29:42;2.85;;;1.63;;
11681;SDS011;5897;42.640;23.310;2023-07-29T14:32:09;1.35;;;1.25;;
11681;SDS011;5897;42.640;23.310;2023-07-29T14:34:36;3.33;;;1.50;;
11681;SDS011;5897;42.640;23.310;2023-07-29T14:37:03;2.00;;;1.40;;
11681;SDS011;5897;42.640;23.310;2023-07-29T14:39:30;2.03;;;1.50;;
11681;SDS011;5897;42.640;23.310;2023-07-29T14:41:57;2.90;;;2.00;;
11681;SDS011;5897;42.640;23.310;2023-07-29T14:44:26;1.85;;;1.65;;
11681;SDS011;5897;42.640;23.310;2023-07-29T14:46:52;1.67;;;1.50;;
11681;SDS011;5897;42.640;23.310;2023-07-29T14:49:20;4.45;;;1.33;;
11681;SDS011;5897;42.640;23.310;2023-07-29T14:51:47;3.08;;;1.50;;